Aviation Digital Data Service (ADDS)

Output produced by METARs form (0111 UTC 25 March 2019)
found at http://www.aviationweather.gov/metar/data/
 
METAR text: LFBM 250100Z AUTO 32002KT CAVOK 06/04 Q1026 NOSIG
Conditions at: LFBM (MONT-DE-MARSAN F, FR) observed 0100 UTC 25 March 2019
Temperature: 6.0°C (43°F)
Dewpoint: 4.0°C (39°F) [RH = 87%]
Pressure (altimeter): 30.30 inches Hg (1026.0 mb)
Winds: from the NW (320 degrees) at 2 MPH (2 knots; 1.0 m/s)
Visibility: 6 or more miles (10+ km)
Ceiling: ceiling and visibility are OK
Clouds: unknown
Weather: no significant weather observed at this time

Forecast for: LFBM (MONT-DE-MARSAN F, FR)
Text: TAF LFBM 242000Z 2421/2521 35005KT CAVOK
Forecast period: 2100 UTC 24 March 2019 to 2100 UTC 25 March 2019
Forecast type: FROM: standard forecast or significant change
Winds: from the N (350 degrees) at 6 MPH (5 knots; 2.6 m/s)
Visibility: 6 or more miles 10+ km)
Ceiling: unknown
Clouds: missing
Weather: NSW  (no significant weather)